sensor_id;sensor_type;location;lat;lon;timestamp;P1;durP1;ratioP1;P2;durP2;ratioP2
53203;SDS011;39086;54.424;18.456;2023-02-01T00:00:45;8.98;;;1.42;;
53203;SDS011;39086;54.424;18.456;2023-02-01T00:01:48;4.53;;;1.38;;
53203;SDS011;39086;54.424;18.456;2023-02-01T00:02:51;10.23;;;1.77;;
53203;SDS011;39086;54.424;18.456;2023-02-01T00:04:01;7.13;;;1.48;;
53203;SDS011;39086;54.424;18.456;2023-02-01T00:05:17;5.82;;;1.75;;
53203;SDS011;39086;54.424;18.456;2023-02-01T00:06:28;10.43;;;2.40;;
53203;SDS011;39086;54.424;18.456;2023-02-01T00:07:30;3.85;;;1.23;;
53203;SDS011;39086;54.424;18.456;2023-02-01T00:08:34;8.68;;;1.60;;
53203;SDS011;39086;54.424;18.456;2023-02-01T00:09:46;10.88;;;1.70;;
53203;SDS011;39086;54.424;18.456;2023-02-01T00:10:57;9.23;;;1.58;;
53203;SDS011;39086;54.424;18.456;2023-02-01T00:12:00;6.85;;;1.50;;
53203;SDS011;39086;54.424;18.456;2023-02-01T00:13:04;9.30;;;1.52;;
53203;SDS011;39086;54.424;18.456;2023-02-01T00:14:07;4.95;;;2.03;;
53203;SDS011;39086;54.424;18.456;2023-02-01T00:15:17;4.80;;;1.52;;
53203;SDS011;39086;54.424;18.456;2023-02-01T00:16:20;5.10;;;1.70;;
53203;SDS011;39086;54.424;18.456;2023-02-01T00:17:24;12.95;;;1.70;;
53203;SDS011;39086;54.424;18.456;2023-02-01T00:18:27;5.43;;;1.38;;
53203;SDS011;39086;54.424;18.456;2023-02-01T00:19:31;6.57;;;1.40;;
53203;SDS011;39086;54.424;18.456;2023-02-01T00:20:44;8.65;;;1.40;;
53203;SDS011;39086;54.424;18.456;2023-02-01T00:21:48;8.70;;;1.48;;
53203;SDS011;39086;54.424;18.456;2023-02-01T00:22:50;7.18;;;1.60;;
53203;SDS011;39086;54.424;18.456;2023-02-01T00:23:53;6.65;;;1.42;;
53203;SDS011;39086;54.424;18.456;2023-02-01T00:24:56;8.95;;;1.90;;
53203;SDS011;39086;54.424;18.456;2023-02-01T00:26:07;7.38;;;1.85;;
53203;SDS011;39086;54.424;18.456;2023-02-01T00:27:10;3.40;;;1.20;;
53203;SDS011;39086;54.424;18.456;2023-02-01T00:28:18;6.10;;;1.17;;
53203;SDS011;39086;54.424;18.456;2023-02-01T00:29:22;8.05;;;1.55;;
53203;SDS011;39086;54.424;18.456;2023-02-01T00:30:25;7.50;;;1.20;;
53203;SDS011;39086;54.424;18.456;2023-02-01T00:31:36;5.47;;;1.38;;
53203;SDS011;39086;54.424;18.456;2023-02-01T00:32:38;9.45;;;1.50;;
53203;SDS011;39086;54.424;18.456;2023-02-01T00:33:42;7.57;;;1.48;;
53203;SDS011;39086;54.424;18.456;2023-02-01T00:34:52;7.93;;;1.65;;
53203;SDS011;39086;54.424;18.456;2023-02-01T00:35:56;3.72;;;1.25;;
53203;SDS011;39086;54.424;18.456;2023-02-01T00:37:06;10.52;;;1.52;;
53203;SDS011;39086;54.424;18.456;2023-02-01T00:38:09;6.70;;;1.80;;
53203;SDS011;39086;54.424;18.456;2023-02-01T00:39:12;4.82;;;1.40;;
53203;SDS011;39086;54.424;18.456;2023-02-01T00:40:15;6.18;;;1.40;;
53203;SDS011;39086;54.424;18.456;2023-02-01T00:41:25;10.07;;;1.88;;
53203;SDS011;39086;54.424;18.456;2023-02-01T00:42:29;11.07;;;1.60;;
53203;SDS011;39086;54.424;18.456;2023-02-01T00:43:39;5.93;;;1.13;;
53203;SDS011;39086;54.424;18.456;2023-02-01T00:44:43;4.85;;;1.50;;
53203;SDS011;39086;54.424;18.456;2023-02-01T00:45:46;6.03;;;1.65;;
53203;SDS011;39086;54.424;18.456;2023-02-01T00:46:49;9.05;;;1.33;;
53203;SDS011;39086;54.424;18.456;2023-02-01T00:47:53;6.72;;;1.85;;
53203;SDS011;39086;54.424;18.456;2023-02-01T00:49:02;5.75;;;1.60;;
53203;SDS011;39086;54.424;18.456;2023-02-01T00:50:07;2.78;;;1.20;;
53203;SDS011;39086;54.424;18.456;2023-02-01T00:51:10;6.50;;;1.83;;
53203;SDS011;39086;54.424;18.456;2023-02-01T00:52:14;7.57;;;1.30;;
53203;SDS011;39086;54.424;18.456;2023-02-01T00:53:17;4.85;;;1.23;;
53203;SDS011;39086;54.424;18.456;2023-02-01T00:54:27;9.98;;;1.42;;
53203;SDS011;39086;54.424;18.456;2023-02-01T00:55:29;6.53;;;1.00;;
53203;SDS011;39086;54.424;18.456;2023-02-01T00:56:33;6.32;;;1.08;;
53203;SDS011;39086;54.424;18.456;2023-02-01T00:57:35;8.35;;;1.48;;
53203;SDS011;39086;54.424;18.456;2023-02-01T00:58:39;4.03;;;1.40;;
53203;SDS011;39086;54.424;18.456;2023-02-01T00:59:49;8.45;;;1.58;;
53203;SDS011;39086;54.424;18.456;2023-02-01T01:01:00;5.05;;;1.52;;
53203;SDS011;39086;54.424;18.456;2023-02-01T01:02:02;9.90;;;1.85;;
53203;SDS011;39086;54.424;18.456;2023-02-01T01:03:06;4.60;;;1.40;;
53203;SDS011;39086;54.424;18.456;2023-02-01T01:04:25;5.85;;;1.10;;
53203;SDS011;39086;54.424;18.456;2023-02-01T01:05:37;5.57;;;1.70;;
53203;SDS011;39086;54.424;18.456;2023-02-01T01:06:46;8.88;;;1.25;;
53203;SDS011;39086;54.424;18.456;2023-02-01T01:07:49;14.32;;;1.70;;
53203;SDS011;39086;54.424;18.456;2023-02-01T01:08:52;12.82;;;1.77;;
53203;SDS011;39086;54.424;18.456;2023-02-01T01:09:56;10.73;;;1.70;;
53203;SDS011;39086;54.424;18.456;2023-02-01T01:11:05;10.75;;;1.45;;
53203;SDS011;39086;54.424;18.456;2023-02-01T01:12:09;9.52;;;1.58;;
53203;SDS011;39086;54.424;18.456;2023-02-01T01:13:12;6.93;;;1.67;;
53203;SDS011;39086;54.424;18.456;2023-02-01T01:14:22;8.25;;;1.63;;
53203;SDS011;39086;54.424;18.456;2023-02-01T01:15:35;7.35;;;1.80;;
53203;SDS011;39086;54.424;18.456;2023-02-01T01:16:38;9.50;;;1.50;;
53203;SDS011;39086;54.424;18.456;2023-02-01T01:17:41;10.45;;;1.75;;
53203;SDS011;39086;54.424;18.456;2023-02-01T01:18:47;6.90;;;1.38;;
53203;SDS011;39086;54.424;18.456;2023-02-01T01:19:57;10.02;;;1.50;;
53203;SDS011;39086;54.424;18.456;2023-02-01T01:21:01;4.93;;;1.42;;
53203;SDS011;39086;54.424;18.456;2023-02-01T01:22:06;9.75;;;1.58;;
53203;SDS011;39086;54.424;18.456;2023-02-01T01:23:09;6.55;;;1.50;;
53203;SDS011;39086;54.424;18.456;2023-02-01T01:24:12;7.70;;;1.20;;
53203;SDS011;39086;54.424;18.456;2023-02-01T01:25:23;4.20;;;1.20;;
53203;SDS011;39086;54.424;18.456;2023-02-01T01:26:26;7.30;;;1.75;;
53203;SDS011;39086;54.424;18.456;2023-02-01T01:27:36;8.80;;;1.48;;
53203;SDS011;39086;54.424;18.456;2023-02-01T01:28:39;13.65;;;1.90;;
53203;SDS011;39086;54.424;18.456;2023-02-01T01:29:49;11.48;;;1.63;;
53203;SDS011;39086;54.424;18.456;2023-02-01T01:30:51;10.10;;;1.73;;
53203;SDS011;39086;54.424;18.456;2023-02-01T01:32:02;11.48;;;1.77;;
53203;SDS011;39086;54.424;18.456;2023-02-01T01:33:06;5.38;;;1.20;;
53203;SDS011;39086;54.424;18.456;2023-02-01T01:34:09;7.72;;;1.60;;
53203;SDS011;39086;54.424;18.456;2023-02-01T01:35:12;9.48;;;2.05;;
53203;SDS011;39086;54.424;18.456;2023-02-01T01:36:16;5.25;;;1.30;;
53203;SDS011;39086;54.424;18.456;2023-02-01T01:37:26;6.28;;;1.50;;
53203;SDS011;39086;54.424;18.456;2023-02-01T01:38:29;4.60;;;1.13;;
53203;SDS011;39086;54.424;18.456;2023-02-01T01:39:32;5.47;;;1.63;;
53203;SDS011;39086;54.424;18.456;2023-02-01T01:40:35;12.73;;;2.00;;
53203;SDS011;39086;54.424;18.456;2023-02-01T01:41:38;5.50;;;1.10;;
53203;SDS011;39086;54.424;18.456;2023-02-01T01:42:48;10.68;;;1.42;;
53203;SDS011;39086;54.424;18.456;2023-02-01T01:43:55;5.13;;;1.50;;
53203;SDS011;39086;54.424;18.456;2023-02-01T01:44:59;8.98;;;2.03;;
53203;SDS011;39086;54.424;18.456;2023-02-01T01:46:05;4.97;;;1.63;;
53203;SDS011;39086;54.424;18.456;2023-02-01T01:47:15;4.07;;;1.50;;
53203;SDS011;39086;54.424;18.456;2023-02-01T01:48:25;11.73;;;2.08;;
53203;SDS011;39086;54.424;18.456;2023-02-01T01:49:30;5.97;;;1.25;;
53203;SDS011;39086;54.424;18.456;2023-02-01T01:50:35;6.13;;;1.73;;
53203;SDS011;39086;54.424;18.456;2023-02-01T01:51:42;8.70;;;1.63;;
53203;SDS011;39086;54.424;18.456;2023-02-01T01:52:52;8.73;;;1.42;;
53203;SDS011;39086;54.424;18.456;2023-02-01T01:53:59;8.65;;;1.40;;
53203;SDS011;39086;54.424;18.456;2023-02-01T01:55:03;11.07;;;1.90;;
53203;SDS011;39086;54.424;18.456;2023-02-01T01:56:07;8.30;;;1.30;;
53203;SDS011;39086;54.424;18.456;2023-02-01T01:57:11;9.15;;;2.25;;
53203;SDS011;39086;54.424;18.456;2023-02-01T01:58:21;8.88;;;1.50;;
53203;SDS011;39086;54.424;18.456;2023-02-01T01:59:26;6.63;;;1.48;;
53203;SDS011;39086;54.424;18.456;2023-02-01T02:00:30;4.22;;;1.30;;
53203;SDS011;39086;54.424;18.456;2023-02-01T02:01:33;8.07;;;1.88;;
53203;SDS011;39086;54.424;18.456;2023-02-01T02:02:36;15.02;;;1.77;;
53203;SDS011;39086;54.424;18.456;2023-02-01T02:03:46;8.20;;;2.28;;
53203;SDS011;39086;54.424;18.456;2023-02-01T02:05:03;9.48;;;1.63;;
53203;SDS011;39086;54.424;18.456;2023-02-01T02:06:10;6.22;;;1.50;;
53203;SDS011;39086;54.424;18.456;2023-02-01T02:07:18;6.55;;;1.77;;
53203;SDS011;39086;54.424;18.456;2023-02-01T02:08:29;9.52;;;1.45;;
53203;SDS011;39086;54.424;18.456;2023-02-01T02:09:32;16.33;;;2.10;;
53203;SDS011;39086;54.424;18.456;2023-02-01T02:10:35;10.20;;;1.75;;
53203;SDS011;39086;54.424;18.456;2023-02-01T02:11:57;13.77;;;1.50;;
53203;SDS011;39086;54.424;18.456;2023-02-01T02:13:07;10.95;;;1.55;;
53203;SDS011;39086;54.424;18.456;2023-02-01T02:14:10;13.45;;;2.33;;
53203;SDS011;39086;54.424;18.456;2023-02-01T02:15:14;11.57;;;1.77;;
53203;SDS011;39086;54.424;18.456;2023-02-01T02:16:27;12.85;;;1.92;;
53203;SDS011;39086;54.424;18.456;2023-02-01T02:17:35;10.80;;;2.00;;
53203;SDS011;39086;54.424;18.456;2023-02-01T02:18:48;6.15;;;1.75;;
53203;SDS011;39086;54.424;18.456;2023-02-01T02:21:16;11.77;;;1.95;;
53203;SDS011;39086;54.424;18.456;2023-02-01T02:22:31;6.53;;;1.42;;
53203;SDS011;39086;54.424;18.456;2023-02-01T02:26:49;12.13;;;2.00;;
53203;SDS011;39086;54.424;18.456;2023-02-01T02:27:56;12.32;;;1.95;;
53203;SDS011;39086;54.424;18.456;2023-02-01T02:29:16;10.60;;;1.83;;
53203;SDS011;39086;54.424;18.456;2023-02-01T02:30:35;10.40;;;1.38;;
53203;SDS011;39086;54.424;18.456;2023-02-01T02:31:49;8.82;;;1.88;;
53203;SDS011;39086;54.424;18.456;2023-02-01T02:34:21;9.32;;;1.60;;
53203;SDS011;39086;54.424;18.456;2023-02-01T02:35:35;7.47;;;1.65;;
53203;SDS011;39086;54.424;18.456;2023-02-01T02:36:44;6.35;;;1.33;;
53203;SDS011;39086;54.424;18.456;2023-02-01T02:37:51;7.13;;;1.75;;
53203;SDS011;39086;54.424;18.456;2023-02-01T02:38:56;6.50;;;1.20;;
53203;SDS011;39086;54.424;18.456;2023-02-01T02:40:07;8.90;;;1.67;;
53203;SDS011;39086;54.424;18.456;2023-02-01T02:41:22;6.20;;;1.42;;
53203;SDS011;39086;54.424;18.456;2023-02-01T02:42:47;13.80;;;1.52;;
53203;SDS011;39086;54.424;18.456;2023-02-01T02:44:12;9.60;;;1.60;;
53203;SDS011;39086;54.424;18.456;2023-02-01T02:45:35;7.90;;;1.90;;
53203;SDS011;39086;54.424;18.456;2023-02-01T02:47:08;4.65;;;1.50;;
53203;SDS011;39086;54.424;18.456;2023-02-01T02:48:33;10.85;;;1.83;;
53203;SDS011;39086;54.424;18.456;2023-02-01T02:49:42;9.82;;;1.70;;
53203;SDS011;39086;54.424;18.456;2023-02-01T02:51:07;12.82;;;1.77;;
53203;SDS011;39086;54.424;18.456;2023-02-01T02:52:36;8.07;;;1.33;;
53203;SDS011;39086;54.424;18.456;2023-02-01T02:54:00;4.78;;;1.33;;
53203;SDS011;39086;54.424;18.456;2023-02-01T02:55:23;10.98;;;1.17;;
53203;SDS011;39086;54.424;18.456;2023-02-01T02:56:28;5.93;;;1.40;;
53203;SDS011;39086;54.424;18.456;2023-02-01T02:57:57;1.92;;;0.95;;
53203;SDS011;39086;54.424;18.456;2023-02-01T02:59:19;3.22;;;0.85;;
53203;SDS011;39086;54.424;18.456;2023-02-01T03:00:41;4.22;;;0.90;;
53203;SDS011;39086;54.424;18.456;2023-02-01T03:02:03;6.70;;;1.48;;
53203;SDS011;39086;54.424;18.456;2023-02-01T03:03:31;7.70;;;1.20;;
53203;SDS011;39086;54.424;18.456;2023-02-01T03:04:53;6.43;;;2.47;;
53203;SDS011;39086;54.424;18.456;2023-02-01T03:06:03;5.25;;;1.30;;
53203;SDS011;39086;54.424;18.456;2023-02-01T03:07:13;10.48;;;2.22;;
53203;SDS011;39086;54.424;18.456;2023-02-01T03:08:18;4.43;;;1.15;;
53203;SDS011;39086;54.424;18.456;2023-02-01T03:09:30;8.52;;;1.42;;
53203;SDS011;39086;54.424;18.456;2023-02-01T03:10:36;6.53;;;1.52;;
53203;SDS011;39086;54.424;18.456;2023-02-01T03:11:41;10.15;;;1.25;;
53203;SDS011;39086;54.424;18.456;2023-02-01T03:13:06;7.75;;;1.58;;
53203;SDS011;39086;54.424;18.456;2023-02-01T03:14:18;9.93;;;1.38;;
53203;SDS011;39086;54.424;18.456;2023-02-01T03:15:22;9.85;;;1.17;;
53203;SDS011;39086;54.424;18.456;2023-02-01T03:16:28;7.50;;;1.63;;
53203;SDS011;39086;54.424;18.456;2023-02-01T03:17:35;6.50;;;1.50;;
53203;SDS011;39086;54.424;18.456;2023-02-01T03:18:42;8.93;;;1.55;;
53203;SDS011;39086;54.424;18.456;2023-02-01T03:19:54;10.30;;;1.58;;
53203;SDS011;39086;54.424;18.456;2023-02-01T03:20:58;14.82;;;1.85;;
53203;SDS011;39086;54.424;18.456;2023-02-01T03:22:05;10.35;;;2.42;;
53203;SDS011;39086;54.424;18.456;2023-02-01T03:23:09;19.52;;;2.88;;
53203;SDS011;39086;54.424;18.456;2023-02-01T03:24:15;8.60;;;1.90;;
53203;SDS011;39086;54.424;18.456;2023-02-01T03:25:27;14.27;;;2.10;;
53203;SDS011;39086;54.424;18.456;2023-02-01T03:26:31;13.18;;;2.67;;
53203;SDS011;39086;54.424;18.456;2023-02-01T03:27:37;7.85;;;1.52;;
53203;SDS011;39086;54.424;18.456;2023-02-01T03:28:44;13.27;;;1.90;;
53203;SDS011;39086;54.424;18.456;2023-02-01T03:29:48;12.13;;;2.10;;
53203;SDS011;39086;54.424;18.456;2023-02-01T03:30:59;12.57;;;1.65;;
53203;SDS011;39086;54.424;18.456;2023-02-01T03:32:01;10.35;;;2.10;;
53203;SDS011;39086;54.424;18.456;2023-02-01T03:33:06;11.13;;;1.98;;
53203;SDS011;39086;54.424;18.456;2023-02-01T03:34:15;8.43;;;2.13;;
53203;SDS011;39086;54.424;18.456;2023-02-01T03:35:20;7.05;;;1.60;;
53203;SDS011;39086;54.424;18.456;2023-02-01T03:36:34;2.92;;;1.60;;
53203;SDS011;39086;54.424;18.456;2023-02-01T03:37:39;12.15;;;1.50;;
53203;SDS011;39086;54.424;18.456;2023-02-01T03:38:43;9.27;;;1.27;;
53203;SDS011;39086;54.424;18.456;2023-02-01T03:39:50;7.25;;;1.90;;
53203;SDS011;39086;54.424;18.456;2023-02-01T03:40:55;8.13;;;1.85;;
53203;SDS011;39086;54.424;18.456;2023-02-01T03:42:07;8.25;;;1.58;;
53203;SDS011;39086;54.424;18.456;2023-02-01T03:43:12;7.40;;;1.38;;
53203;SDS011;39086;54.424;18.456;2023-02-01T03:44:19;3.33;;;0.95;;
53203;SDS011;39086;54.424;18.456;2023-02-01T03:45:23;6.35;;;1.10;;
53203;SDS011;39086;54.424;18.456;2023-02-01T03:46:30;5.55;;;0.60;;
53203;SDS011;39086;54.424;18.456;2023-02-01T03:47:41;1.98;;;0.40;;
53203;SDS011;39086;54.424;18.456;2023-02-01T03:48:53;8.77;;;1.20;;
53203;SDS011;39086;54.424;18.456;2023-02-01T03:49:57;5.78;;;1.15;;
53203;SDS011;39086;54.424;18.456;2023-02-01T03:51:03;1.08;;;0.73;;
53203;SDS011;39086;54.424;18.456;2023-02-01T03:52:08;4.50;;;1.13;;
53203;SDS011;39086;54.424;18.456;2023-02-01T03:53:13;2.85;;;1.00;;
53203;SDS011;39086;54.424;18.456;2023-02-01T03:54:24;7.07;;;1.60;;
53203;SDS011;39086;54.424;18.456;2023-02-01T03:55:28;3.50;;;0.90;;
53203;SDS011;39086;54.424;18.456;2023-02-01T03:56:32;2.90;;;0.90;;
53203;SDS011;39086;54.424;18.456;2023-02-01T03:57:38;5.70;;;1.08;;
53203;SDS011;39086;54.424;18.456;2023-02-01T03:58:42;5.10;;;1.00;;
53203;SDS011;39086;54.424;18.456;2023-02-01T04:00:06;2.28;;;0.80;;
53203;SDS011;39086;54.424;18.456;2023-02-01T04:01:11;3.60;;;1.10;;
53203;SDS011;39086;54.424;18.456;2023-02-01T04:02:13;5.47;;;1.13;;
53203;SDS011;39086;54.424;18.456;2023-02-01T04:03:17;3.00;;;1.05;;
53203;SDS011;39086;54.424;18.456;2023-02-01T04:04:33;1.88;;;1.02;;
53203;SDS011;39086;54.424;18.456;2023-02-01T04:05:50;6.65;;;1.15;;
53203;SDS011;39086;54.424;18.456;2023-02-01T04:06:54;4.00;;;0.95;;
53203;SDS011;39086;54.424;18.456;2023-02-01T04:07:58;3.05;;;1.15;;
53203;SDS011;39086;54.424;18.456;2023-02-01T04:09:00;10.70;;;1.42;;
53203;SDS011;39086;54.424;18.456;2023-02-01T04:10:11;5.65;;;1.15;;
53203;SDS011;39086;54.424;18.456;2023-02-01T04:11:14;12.35;;;2.00;;
53203;SDS011;39086;54.424;18.456;2023-02-01T04:12:17;8.48;;;1.58;;
53203;SDS011;39086;54.424;18.456;2023-02-01T04:13:20;5.15;;;1.58;;
53203;SDS011;39086;54.424;18.456;2023-02-01T04:14:30;14.23;;;1.63;;
53203;SDS011;39086;54.424;18.456;2023-02-01T04:15:33;16.73;;;2.20;;
53203;SDS011;39086;54.424;18.456;2023-02-01T04:16:36;8.57;;;2.08;;
53203;SDS011;39086;54.424;18.456;2023-02-01T04:17:39;8.95;;;1.70;;
53203;SDS011;39086;54.424;18.456;2023-02-01T04:18:42;7.13;;;1.60;;
53203;SDS011;39086;54.424;18.456;2023-02-01T04:19:51;5.60;;;1.58;;
53203;SDS011;39086;54.424;18.456;2023-02-01T04:21:00;8.75;;;1.98;;
53203;SDS011;39086;54.424;18.456;2023-02-01T04:22:05;16.40;;;2.17;;
53203;SDS011;39086;54.424;18.456;2023-02-01T04:23:08;13.13;;;2.00;;
53203;SDS011;39086;54.424;18.456;2023-02-01T04:24:11;11.45;;;2.45;;
53203;SDS011;39086;54.424;18.456;2023-02-01T04:25:21;10.32;;;1.50;;
53203;SDS011;39086;54.424;18.456;2023-02-01T04:26:23;10.15;;;1.77;;
53203;SDS011;39086;54.424;18.456;2023-02-01T04:27:27;15.05;;;2.30;;
53203;SDS011;39086;54.424;18.456;2023-02-01T04:28:30;14.65;;;2.22;;
53203;SDS011;39086;54.424;18.456;2023-02-01T04:29:33;11.77;;;2.50;;
53203;SDS011;39086;54.424;18.456;2023-02-01T04:30:43;11.70;;;2.65;;
53203;SDS011;39086;54.424;18.456;2023-02-01T04:31:55;10.32;;;2.58;;
53203;SDS011;39086;54.424;18.456;2023-02-01T04:32:58;16.17;;;2.60;;
53203;SDS011;39086;54.424;18.456;2023-02-01T04:34:01;12.15;;;2.75;;
53203;SDS011;39086;54.424;18.456;2023-02-01T04:35:04;11.88;;;2.00;;
53203;SDS011;39086;54.424;18.456;2023-02-01T04:36:14;11.20;;;2.28;;
53203;SDS011;39086;54.424;18.456;2023-02-01T04:37:22;25.73;;;3.20;;
53203;SDS011;39086;54.424;18.456;2023-02-01T04:38:26;16.58;;;2.75;;
53203;SDS011;39086;54.424;18.456;2023-02-01T04:39:30;13.60;;;3.03;;
53203;SDS011;39086;54.424;18.456;2023-02-01T04:40:34;13.35;;;2.33;;
53203;SDS011;39086;54.424;18.456;2023-02-01T04:41:45;14.88;;;2.47;;
53203;SDS011;39086;54.424;18.456;2023-02-01T04:42:49;7.60;;;1.75;;
53203;SDS011;39086;54.424;18.456;2023-02-01T04:43:51;6.80;;;1.48;;
53203;SDS011;39086;54.424;18.456;2023-02-01T04:44:54;6.68;;;2.30;;
53203;SDS011;39086;54.424;18.456;2023-02-01T04:45:57;8.73;;;1.77;;
53203;SDS011;39086;54.424;18.456;2023-02-01T04:47:07;14.20;;;1.80;;
53203;SDS011;39086;54.424;18.456;2023-02-01T04:48:10;10.75;;;2.05;;
53203;SDS011;39086;54.424;18.456;2023-02-01T04:49:14;4.88;;;1.60;;
53203;SDS011;39086;54.424;18.456;2023-02-01T04:50:16;5.40;;;1.58;;
53203;SDS011;39086;54.424;18.456;2023-02-01T04:51:22;9.10;;;1.70;;
53203;SDS011;39086;54.424;18.456;2023-02-01T04:52:32;12.30;;;1.48;;
53203;SDS011;39086;54.424;18.456;2023-02-01T04:53:35;12.70;;;1.92;;
53203;SDS011;39086;54.424;18.456;2023-02-01T04:54:38;12.35;;;2.40;;
53203;SDS011;39086;54.424;18.456;2023-02-01T04:55:42;11.40;;;2.17;;
53203;SDS011;39086;54.424;18.456;2023-02-01T04:56:44;14.98;;;2.92;;
53203;SDS011;39086;54.424;18.456;2023-02-01T04:57:54;21.60;;;2.05;;
53203;SDS011;39086;54.424;18.456;2023-02-01T04:59:04;10.50;;;2.53;;
53203;SDS011;39086;54.424;18.456;2023-02-01T05:00:08;14.77;;;2.95;;
53203;SDS011;39086;54.424;18.456;2023-02-01T05:01:11;14.23;;;2.30;;
53203;SDS011;39086;54.424;18.456;2023-02-01T05:02:15;10.38;;;2.38;;
53203;SDS011;39086;54.424;18.456;2023-02-01T05:03:17;9.98;;;1.85;;
53203;SDS011;39086;54.424;18.456;2023-02-01T05:04:34;9.20;;;2.22;;
53203;SDS011;39086;54.424;18.456;2023-02-01T05:05:51;6.70;;;1.98;;
53203;SDS011;39086;54.424;18.456;2023-02-01T05:06:55;10.98;;;2.00;;
53203;SDS011;39086;54.424;18.456;2023-02-01T05:07:58;9.82;;;1.80;;
53203;SDS011;39086;54.424;18.456;2023-02-01T05:09:09;13.38;;;1.85;;
53203;SDS011;39086;54.424;18.456;2023-02-01T05:10:11;8.85;;;1.67;;
53203;SDS011;39086;54.424;18.456;2023-02-01T05:11:22;9.57;;;1.60;;
53203;SDS011;39086;54.424;18.456;2023-02-01T05:12:43;13.93;;;1.58;;
53203;SDS011;39086;54.424;18.456;2023-02-01T05:14:05;6.72;;;1.30;;
53203;SDS011;39086;54.424;18.456;2023-02-01T05:15:15;7.03;;;1.33;;
53203;SDS011;39086;54.424;18.456;2023-02-01T05:16:17;2.08;;;0.65;;
53203;SDS011;39086;54.424;18.456;2023-02-01T05:17:21;5.32;;;1.10;;
53203;SDS011;39086;54.424;18.456;2023-02-01T05:18:23;6.00;;;1.42;;
53203;SDS011;39086;54.424;18.456;2023-02-01T05:19:27;4.95;;;1.42;;
53203;SDS011;39086;54.424;18.456;2023-02-01T05:20:36;1.00;;;0.80;;
53203;SDS011;39086;54.424;18.456;2023-02-01T05:21:46;3.50;;;1.20;;
53203;SDS011;39086;54.424;18.456;2023-02-01T05:22:48;5.57;;;1.55;;
53203;SDS011;39086;54.424;18.456;2023-02-01T05:23:53;6.55;;;1.33;;
53203;SDS011;39086;54.424;18.456;2023-02-01T05:25:21;9.43;;;1.58;;
53203;SDS011;39086;54.424;18.456;2023-02-01T05:26:24;5.25;;;1.00;;
53203;SDS011;39086;54.424;18.456;2023-02-01T05:27:28;7.10;;;1.55;;
53203;SDS011;39086;54.424;18.456;2023-02-01T05:28:38;6.07;;;1.77;;
53203;SDS011;39086;54.424;18.456;2023-02-01T05:29:41;6.75;;;1.40;;
53203;SDS011;39086;54.424;18.456;2023-02-01T05:30:45;6.80;;;1.42;;
53203;SDS011;39086;54.424;18.456;2023-02-01T05:31:47;6.28;;;1.17;;
53203;SDS011;39086;54.424;18.456;2023-02-01T05:32:51;4.45;;;1.50;;
53203;SDS011;39086;54.424;18.456;2023-02-01T05:34:02;11.68;;;2.10;;
53203;SDS011;39086;54.424;18.456;2023-02-01T05:35:05;8.13;;;1.75;;
53203;SDS011;39086;54.424;18.456;2023-02-01T05:36:15;4.68;;;1.40;;
53203;SDS011;39086;54.424;18.456;2023-02-01T05:37:17;8.77;;;2.15;;
53203;SDS011;39086;54.424;18.456;2023-02-01T05:38:21;5.72;;;1.45;;
53203;SDS011;39086;54.424;18.456;2023-02-01T05:39:25;6.00;;;1.27;;
53203;SDS011;39086;54.424;18.456;2023-02-01T05:40:35;5.22;;;1.15;;
53203;SDS011;39086;54.424;18.456;2023-02-01T05:41:37;3.53;;;1.20;;
53203;SDS011;39086;54.424;18.456;2023-02-01T05:42:42;4.72;;;1.10;;
53203;SDS011;39086;54.424;18.456;2023-02-01T05:43:44;5.45;;;1.45;;
53203;SDS011;39086;54.424;18.456;2023-02-01T05:44:48;5.80;;;1.33;;
53203;SDS011;39086;54.424;18.456;2023-02-01T05:45:58;3.88;;;1.40;;
53203;SDS011;39086;54.424;18.456;2023-02-01T05:47:01;5.57;;;1.20;;
53203;SDS011;39086;54.424;18.456;2023-02-01T05:48:05;4.85;;;1.50;;
53203;SDS011;39086;54.424;18.456;2023-02-01T05:49:07;6.35;;;1.55;;
53203;SDS011;39086;54.424;18.456;2023-02-01T05:50:11;8.50;;;1.50;;
53203;SDS011;39086;54.424;18.456;2023-02-01T05:51:20;8.60;;;1.92;;
53203;SDS011;39086;54.424;18.456;2023-02-01T05:52:23;13.57;;;2.05;;
53203;SDS011;39086;54.424;18.456;2023-02-01T05:53:26;9.68;;;1.63;;
53203;SDS011;39086;54.424;18.456;2023-02-01T05:54:31;7.13;;;1.77;;
53203;SDS011;39086;54.424;18.456;2023-02-01T05:55:34;11.90;;;2.28;;
53203;SDS011;39086;54.424;18.456;2023-02-01T05:56:44;15.00;;;2.00;;
53203;SDS011;39086;54.424;18.456;2023-02-01T05:57:46;11.75;;;2.28;;
53203;SDS011;39086;54.424;18.456;2023-02-01T05:58:50;11.25;;;2.53;;
53203;SDS011;39086;54.424;18.456;2023-02-01T05:59:52;15.60;;;2.25;;
53203;SDS011;39086;54.424;18.456;2023-02-01T06:00:56;8.55;;;2.63;;
53203;SDS011;39086;54.424;18.456;2023-02-01T06:02:07;17.05;;;3.00;;
53203;SDS011;39086;54.424;18.456;2023-02-01T06:03:18;13.77;;;2.30;;
53203;SDS011;39086;54.424;18.456;2023-02-01T06:04:28;18.58;;;2.70;;
53203;SDS011;39086;54.424;18.456;2023-02-01T06:05:45;15.48;;;2.78;;
53203;SDS011;39086;54.424;18.456;2023-02-01T06:06:49;16.27;;;2.65;;
53203;SDS011;39086;54.424;18.456;2023-02-01T06:07:58;15.43;;;3.20;;
53203;SDS011;39086;54.424;18.456;2023-02-01T06:09:01;17.15;;;2.63;;
53203;SDS011;39086;54.424;18.456;2023-02-01T06:10:05;11.63;;;3.58;;
53203;SDS011;39086;54.424;18.456;2023-02-01T06:11:09;11.63;;;1.83;;
53203;SDS011;39086;54.424;18.456;2023-02-01T06:12:32;17.83;;;3.08;;
53203;SDS011;39086;54.424;18.456;2023-02-01T06:13:36;18.15;;;2.60;;
53203;SDS011;39086;54.424;18.456;2023-02-01T06:14:39;19.50;;;3.22;;
53203;SDS011;39086;54.424;18.456;2023-02-01T06:15:44;13.40;;;2.70;;
53203;SDS011;39086;54.424;18.456;2023-02-01T06:16:47;13.05;;;2.80;;
53203;SDS011;39086;54.424;18.456;2023-02-01T06:17:57;10.82;;;2.13;;
53203;SDS011;39086;54.424;18.456;2023-02-01T06:19:06;13.07;;;2.67;;
53203;SDS011;39086;54.424;18.456;2023-02-01T06:20:10;11.73;;;2.70;;
53203;SDS011;39086;54.424;18.456;2023-02-01T06:21:14;16.58;;;2.85;;
53203;SDS011;39086;54.424;18.456;2023-02-01T06:22:24;10.95;;;2.88;;
53203;SDS011;39086;54.424;18.456;2023-02-01T06:23:28;8.98;;;2.33;;
53203;SDS011;39086;54.424;18.456;2023-02-01T06:24:38;15.07;;;2.53;;
53203;SDS011;39086;54.424;18.456;2023-02-01T06:25:43;7.60;;;1.90;;
53203;SDS011;39086;54.424;18.456;2023-02-01T06:26:46;11.70;;;2.13;;
53203;SDS011;39086;54.424;18.456;2023-02-01T06:27:49;15.02;;;2.67;;
53203;SDS011;39086;54.424;18.456;2023-02-01T06:28:52;8.82;;;2.38;;
53203;SDS011;39086;54.424;18.456;2023-02-01T06:30:03;12.40;;;2.20;;
53203;SDS011;39086;54.424;18.456;2023-02-01T06:31:06;16.02;;;3.42;;
53203;SDS011;39086;54.424;18.456;2023-02-01T06:32:10;19.30;;;2.72;;
53203;SDS011;39086;54.424;18.456;2023-02-01T06:33:13;9.95;;;2.30;;
53203;SDS011;39086;54.424;18.456;2023-02-01T06:34:17;10.95;;;2.13;;
53203;SDS011;39086;54.424;18.456;2023-02-01T06:35:26;8.68;;;1.92;;
53203;SDS011;39086;54.424;18.456;2023-02-01T06:36:29;7.95;;;2.42;;
53203;SDS011;39086;54.424;18.456;2023-02-01T06:37:33;24.52;;;3.53;;
53203;SDS011;39086;54.424;18.456;2023-02-01T06:38:35;12.68;;;2.60;;
53203;SDS011;39086;54.424;18.456;2023-02-01T06:39:40;23.05;;;2.90;;
53203;SDS011;39086;54.424;18.456;2023-02-01T06:40:52;10.35;;;1.80;;
53203;SDS011;39086;54.424;18.456;2023-02-01T06:41:56;8.50;;;2.20;;
53203;SDS011;39086;54.424;18.456;2023-02-01T06:42:59;10.68;;;1.80;;
53203;SDS011;39086;54.424;18.456;2023-02-01T06:44:02;10.95;;;2.08;;